createdAt,value
2022-12-11T00:02:40.682Z,168.82
2022-12-11T00:05:48.148Z,181.34
2022-12-11T00:08:56.529Z,185.32
2022-12-11T00:12:02.634Z,166.75
2022-12-11T00:15:12.027Z,141.84
2022-12-11T00:18:20.484Z,138.33
2022-12-11T00:21:26.767Z,139.76
2022-12-11T00:24:33.658Z,127.79
2022-12-11T00:27:40.302Z,134.16
2022-12-11T00:30:46.452Z,134.42
2022-12-11T00:33:55.564Z,127.41
2022-12-11T00:37:01.914Z,129.26
2022-12-11T00:40:10.230Z,130.43
2022-12-11T00:43:17.254Z,138.37
2022-12-11T00:46:23.746Z,129.45
2022-12-11T00:49:32.245Z,128.80
2022-12-11T00:52:39.020Z,128.81
2022-12-11T00:55:46.522Z,126.19
2022-12-11T00:58:53.045Z,125.63
2022-12-11T01:01:58.833Z,124.89
2022-12-11T01:05:09.579Z,137.24
2022-12-11T01:08:15.194Z,132.40
2022-12-11T01:11:21.626Z,135.48
2022-12-11T01:14:27.315Z,140.09
2022-12-11T01:17:33.839Z,140.97
2022-12-11T01:20:45.305Z,142.79
2022-12-11T01:23:54.052Z,142.38
2022-12-11T01:26:59.688Z,142.86
2022-12-11T01:30:08.078Z,144.90
2022-12-11T01:33:13.752Z,148.72
2022-12-11T01:36:25.157Z,150.54
2022-12-11T01:39:31.007Z,154.91
2022-12-11T01:42:38.436Z,148.29
2022-12-11T01:45:47.559Z,153.16
2022-12-11T01:48:54.143Z,158.61
2022-12-11T01:52:10.728Z,166.41
2022-12-11T01:55:18.129Z,159.78
2022-12-11T01:58:29.689Z,162.69
2022-12-11T02:01:42.948Z,155.45
2022-12-11T02:04:51.199Z,149.66
2022-12-11T02:08:06.030Z,174.11
2022-12-11T02:11:26.103Z,154.84
2022-12-11T02:14:46.286Z,147.35
2022-12-11T02:18:03.011Z,148.62
2022-12-11T02:21:23.596Z,151.14
2022-12-11T02:25:07.122Z,153.79
2022-12-11T02:28:28.354Z,152.65
2022-12-11T02:31:44.331Z,159.11
2022-12-11T02:35:05.839Z,161.29
2022-12-11T02:38:21.031Z,160.13
2022-12-11T02:41:31.838Z,178.37
2022-12-11T02:44:43.457Z,178.80
2022-12-11T02:47:53.415Z,171.72
2022-12-11T02:51:04.104Z,172.96
2022-12-11T02:54:16.672Z,184.39
2022-12-11T02:57:34.358Z,175.64
2022-12-11T03:00:42.870Z,164.97
2022-12-11T03:03:49.333Z,162.73
2022-12-11T03:07:01.635Z,165.82
2022-12-11T03:10:12.286Z,173.54
2022-12-11T03:13:25.612Z,161.57
2022-12-11T03:16:41.312Z,174.45
2022-12-11T03:19:58.604Z,173.42
2022-12-11T03:23:21.917Z,168.72
2022-12-11T03:26:29.922Z,174.01
2022-12-11T03:29:45.525Z,224.19
2022-12-11T03:33:01.822Z,178.25
2022-12-11T03:36:14.613Z,187.62
2022-12-11T03:39:30.696Z,188.13
2022-12-11T03:42:39.908Z,172.97
2022-12-11T03:45:49.315Z,171.64
2022-12-11T03:49:06.744Z,173.74
2022-12-11T03:52:17.437Z,172.71
2022-12-11T03:55:27.841Z,172.86
2022-12-11T03:58:33.541Z,166.03
2022-12-11T04:01:40.051Z,162.79
2022-12-11T04:04:48.193Z,170.77
2022-12-11T04:07:54.468Z,164.71
2022-12-11T04:11:12.468Z,170.33
2022-12-11T04:14:31.155Z,175.00
2022-12-11T04:17:52.034Z,181.79
2022-12-11T04:21:13.088Z,184.92
2022-12-11T04:24:18.608Z,173.62
2022-12-11T04:27:49.530Z,166.20
2022-12-11T04:30:55.094Z,166.26
2022-12-11T04:34:01.737Z,195.11
2022-12-11T04:37:09.849Z,166.40
2022-12-11T04:40:20.805Z,174.08
2022-12-11T04:43:26.244Z,175.43
2022-12-11T04:46:33.404Z,173.06
2022-12-11T04:49:39.064Z,173.79
2022-12-11T04:52:47.962Z,171.74
2022-12-11T04:55:53.518Z,170.83
2022-12-11T04:58:59.814Z,163.22
2022-12-11T05:02:05.411Z,163.96
2022-12-11T05:05:14.643Z,168.40
2022-12-11T05:08:24.365Z,158.79
2022-12-11T05:11:30.829Z,164.80
2022-12-11T05:14:36.256Z,159.00
2022-12-11T05:17:42.714Z,164.77
2022-12-11T05:20:48.858Z,166.56
2022-12-11T05:23:57.805Z,173.84
2022-12-11T05:27:03.318Z,182.71
2022-12-11T05:30:12.203Z,171.57
2022-12-11T05:33:18.095Z,173.47
2022-12-11T05:36:28.264Z,183.20
2022-12-11T05:39:36.457Z,174.63
2022-12-11T05:42:42.761Z,175.84
2022-12-11T05:45:48.247Z,173.57
2022-12-11T05:48:58.619Z,168.74
2022-12-11T05:52:04.087Z,163.63
2022-12-11T05:55:13.768Z,164.48
2022-12-11T05:58:19.331Z,165.62
2022-12-11T06:01:29.512Z,163.40
2022-12-11T06:04:35.003Z,182.95
2022-12-11T06:07:41.284Z,151.92
2022-12-11T06:10:53.033Z,155.76
2022-12-11T06:14:00.047Z,156.50
2022-12-11T06:17:05.591Z,150.36
2022-12-11T06:20:13.066Z,152.94
2022-12-11T06:23:18.703Z,155.22
2022-12-11T06:26:29.515Z,154.21
2022-12-11T06:29:35.109Z,157.49
2022-12-11T06:32:41.457Z,165.46
2022-12-11T06:35:46.958Z,165.75
2022-12-11T06:38:53.403Z,170.44
2022-12-11T06:42:01.375Z,184.12
2022-12-11T06:45:09.578Z,195.20
2022-12-11T06:48:15.413Z,192.37
2022-12-11T06:51:25.517Z,234.91
2022-12-11T06:54:31.307Z,219.44
2022-12-11T06:57:40.347Z,204.59
2022-12-11T07:00:46.228Z,206.53
2022-12-11T07:03:55.468Z,203.19
2022-12-11T07:07:01.065Z,210.80
2022-12-11T07:10:08.858Z,208.49
2022-12-11T07:13:17.011Z,190.75
2022-12-11T07:16:23.365Z,185.03
2022-12-11T07:19:29.753Z,212.59
2022-12-11T07:22:37.596Z,201.62
2022-12-11T07:25:46.461Z,691.02
2022-12-11T07:28:56.208Z,638.71
2022-12-11T07:32:01.795Z,246.45
2022-12-11T07:35:09.651Z,355.15
2022-12-11T07:38:15.620Z,560.87
2022-12-11T07:41:22.152Z,695.15
2022-12-11T07:44:34.630Z,764.34
2022-12-11T07:47:42.972Z,339.53
2022-12-11T07:50:48.760Z,256.73
2022-12-11T07:53:57.494Z,321.18
2022-12-11T07:57:03.232Z,275.99
2022-12-11T08:00:14.491Z,301.73
2022-12-11T08:03:20.039Z,342.71
2022-12-11T08:06:31.318Z,244.54
2022-12-11T08:09:37.034Z,207.97
2022-12-11T08:12:43.330Z,196.99
2022-12-11T08:15:51.470Z,182.54
2022-12-11T08:18:58.351Z,218.58
2022-12-11T08:22:03.798Z,334.36
2022-12-11T08:25:11.639Z,185.21
2022-12-11T08:28:17.310Z,199.87
2022-12-11T08:31:26.986Z,508.62
2022-12-11T08:34:32.666Z,543.27
2022-12-11T08:37:39.232Z,443.71
2022-12-11T08:40:44.961Z,233.60
2022-12-11T08:43:55.045Z,434.33
2022-12-11T08:47:05.576Z,437.29
2022-12-11T08:50:13.837Z,329.63
2022-12-11T08:53:19.388Z,294.98
2022-12-11T08:56:26.570Z,217.89
2022-12-11T08:59:31.995Z,182.00
2022-12-11T09:02:40.957Z,178.45
2022-12-11T09:05:46.568Z,175.38
2022-12-11T09:08:56.279Z,229.98
2022-12-11T09:12:02.152Z,229.63
2022-12-11T09:15:10.281Z,211.39
2022-12-11T09:18:18.735Z,184.66
2022-12-11T09:21:29.838Z,248.07
2022-12-11T09:24:35.548Z,210.56
2022-12-11T09:27:41.801Z,227.54
2022-12-11T09:30:47.278Z,224.48
2022-12-11T09:34:00.278Z,201.39
2022-12-11T09:37:05.700Z,189.16
2022-12-11T09:40:15.240Z,209.06
2022-12-11T09:43:40.961Z,253.26
2022-12-11T09:46:51.576Z,275.66
2022-12-11T09:50:18.464Z,287.40
2022-12-11T09:53:35.794Z,256.97
2022-12-11T09:56:52.964Z,254.86
2022-12-11T10:00:31.862Z,236.76
2022-12-11T10:04:13.430Z,224.53
2022-12-11T10:07:40.992Z,209.00
2022-12-11T10:11:00.016Z,248.45
2022-12-11T10:14:23.332Z,233.43
2022-12-11T10:17:35.278Z,232.78
2022-12-11T10:20:43.034Z,250.67
2022-12-11T10:24:01.060Z,238.27
2022-12-11T10:27:21.447Z,235.41
2022-12-11T10:30:34.716Z,229.38
2022-12-11T10:33:59.149Z,199.91
2022-12-11T10:37:06.086Z,192.82
2022-12-11T10:40:16.761Z,195.51
2022-12-11T10:43:22.766Z,169.86
2022-12-11T10:46:33.289Z,164.47
2022-12-11T10:49:41.889Z,165.45
2022-12-11T10:52:48.720Z,162.85
2022-12-11T10:55:58.197Z,159.08
2022-12-11T10:59:07.264Z,164.47
2022-12-11T11:02:28.967Z,173.13
2022-12-11T11:05:38.951Z,194.98
2022-12-11T11:08:47.841Z,180.00
2022-12-11T11:11:56.678Z,184.90
2022-12-11T11:15:03.768Z,183.33
2022-12-11T11:18:27.176Z,179.44
2022-12-11T11:21:33.095Z,195.74
2022-12-11T11:24:45.530Z,566.06
2022-12-11T11:28:00.998Z,1096.71
2022-12-11T11:31:12.313Z,1113.36
2022-12-11T11:34:26.303Z,775.35
2022-12-11T11:37:37.169Z,327.02
2022-12-11T11:40:53.957Z,278.44
2022-12-11T11:44:10.171Z,289.90
2022-12-11T11:47:25.393Z,265.51
2022-12-11T11:50:39.001Z,272.76
2022-12-11T11:53:51.189Z,297.00
2022-12-11T11:57:02.039Z,301.78
2022-12-11T12:00:22.776Z,303.26
2022-12-11T12:03:31.803Z,311.40
2022-12-11T12:07:13.563Z,279.28
2022-12-11T12:10:32.260Z,287.64
2022-12-11T12:13:57.191Z,273.15
2022-12-11T12:17:26.489Z,302.41
2022-12-11T12:20:51.063Z,281.22
2022-12-11T12:24:17.912Z,396.17
2022-12-11T12:27:52.219Z,430.42
2022-12-11T12:31:24.846Z,394.80
2022-12-11T12:34:58.446Z,272.14
2022-12-11T12:38:17.794Z,390.12
2022-12-11T12:41:38.104Z,577.10
2022-12-11T12:45:01.007Z,400.72
2022-12-11T12:48:06.631Z,443.65
2022-12-11T12:51:19.160Z,459.07
2022-12-11T12:54:29.109Z,765.63
2022-12-11T12:57:37.974Z,566.30
2022-12-11T13:00:46.904Z,513.47
2022-12-11T13:04:01.927Z,649.98
2022-12-11T13:07:27.308Z,1014.17
2022-12-11T13:10:38.086Z,876.15
2022-12-11T13:13:54.506Z,855.22
2022-12-11T13:17:31.971Z,587.22
2022-12-11T13:20:51.201Z,471.22
2022-12-11T13:24:26.885Z,747.54
2022-12-11T13:27:43.685Z,471.58
2022-12-11T13:31:26.211Z,628.14
2022-12-11T13:34:39.357Z,483.64
2022-12-11T13:37:49.893Z,548.53
2022-12-11T13:41:01.091Z,644.47
2022-12-11T13:44:11.193Z,611.39
2022-12-11T13:47:22.699Z,423.04
2022-12-11T13:50:34.780Z,380.55
2022-12-11T13:53:40.241Z,329.68
2022-12-11T13:57:02.707Z,525.70
2022-12-11T14:00:23.510Z,499.11
2022-12-11T14:03:30.420Z,305.13
2022-12-11T14:06:42.200Z,308.87
2022-12-11T14:09:49.549Z,333.12
2022-12-11T14:13:06.912Z,371.17
2022-12-11T14:16:26.273Z,549.35
2022-12-11T14:19:32.230Z,760.94
2022-12-11T14:22:38.525Z,724.56
2022-12-11T14:25:44.013Z,629.28
2022-12-11T14:28:54.285Z,469.56
2022-12-11T14:32:06.342Z,387.68
2022-12-11T14:35:34.263Z,410.43
2022-12-11T14:38:52.217Z,416.10
2022-12-11T14:42:07.648Z,371.82
2022-12-11T14:45:25.681Z,460.47
2022-12-11T14:48:40.756Z,370.37
2022-12-11T14:51:48.005Z,771.02
2022-12-11T14:55:03.391Z,465.24
2022-12-11T14:58:21.809Z,372.90
2022-12-11T15:01:34.459Z,537.28
2022-12-11T15:04:42.516Z,351.40
2022-12-11T15:08:03.105Z,359.34
2022-12-11T15:11:14.266Z,363.03
2022-12-11T15:14:25.581Z,358.25
2022-12-11T15:17:37.350Z,402.26
2022-12-11T15:20:44.423Z,373.73
2022-12-11T15:23:59.249Z,417.90
2022-12-11T15:27:06.095Z,353.27
2022-12-11T15:30:32.881Z,374.69
2022-12-11T15:33:51.325Z,546.12
2022-12-11T15:36:59.230Z,609.05
2022-12-11T15:40:08.330Z,435.39
2022-12-11T15:43:16.208Z,398.04
2022-12-11T15:46:23.126Z,375.50
2022-12-11T15:49:32.624Z,309.49
2022-12-11T15:52:39.118Z,323.92
2022-12-11T15:55:44.853Z,297.82
2022-12-11T15:58:53.336Z,268.00
2022-12-11T16:01:58.920Z,322.46
2022-12-11T16:05:08.854Z,356.62
2022-12-11T16:08:18.749Z,381.20
2022-12-11T16:11:25.077Z,468.35
2022-12-11T16:14:30.545Z,458.24
2022-12-11T16:17:39.115Z,566.64
2022-12-11T16:20:49.085Z,611.75
2022-12-11T16:23:55.381Z,626.00
2022-12-11T16:27:01.562Z,469.75
2022-12-11T16:30:10.912Z,505.31
2022-12-11T16:33:19.228Z,427.54
2022-12-11T16:36:28.323Z,413.94
2022-12-11T16:39:33.979Z,371.17
2022-12-11T16:42:41.543Z,415.62
2022-12-11T16:45:47.066Z,643.26
2022-12-11T16:48:53.764Z,696.23
2022-12-11T16:52:01.788Z,540.90
2022-12-11T16:55:10.061Z,606.52
2022-12-11T16:58:20.160Z,498.26
2022-12-11T17:01:26.828Z,623.53
2022-12-11T17:04:32.778Z,524.11
2022-12-11T17:07:41.883Z,629.55
2022-12-11T17:10:47.469Z,442.96
2022-12-11T17:13:58.257Z,512.94
2022-12-11T17:17:04.049Z,519.06
2022-12-11T17:20:13.140Z,473.20
2022-12-11T17:23:22.314Z,474.41
2022-12-11T17:26:28.899Z,462.96
2022-12-11T17:29:35.094Z,420.71
2022-12-11T17:32:41.541Z,352.56
2022-12-11T17:35:47.318Z,350.11
2022-12-11T17:38:57.157Z,361.86
2022-12-11T17:42:03.275Z,398.90
2022-12-11T17:45:11.920Z,376.55
2022-12-11T17:48:19.342Z,406.83
2022-12-11T17:51:29.396Z,426.47
2022-12-11T17:54:39.361Z,518.75
2022-12-11T17:57:45.758Z,466.17
2022-12-11T18:00:57.161Z,422.77
2022-12-11T18:04:04.441Z,956.92
2022-12-11T18:07:10.142Z,1853.33
2022-12-11T18:10:20.668Z,567.66
2022-12-11T18:13:27.699Z,2200.94
2022-12-11T18:16:38.151Z,554.30
2022-12-11T18:19:46.221Z,514.93
2022-12-11T18:22:53.875Z,517.89
2022-12-11T18:26:02.296Z,557.49
2022-12-11T18:29:09.947Z,835.09
2022-12-11T18:32:15.763Z,905.59
2022-12-11T18:35:23.621Z,859.15
2022-12-11T18:38:29.322Z,663.90
2022-12-11T18:41:38.839Z,545.65
2022-12-11T18:44:45.600Z,545.42
2022-12-11T18:47:55.921Z,592.05
2022-12-11T18:51:01.936Z,672.80
2022-12-11T18:54:09.820Z,493.00
2022-12-11T18:57:18.102Z,557.35
2022-12-11T19:00:25.247Z,488.80
2022-12-11T19:03:30.981Z,539.24
2022-12-11T19:06:38.336Z,482.69
2022-12-11T19:09:48.126Z,525.17
2022-12-11T19:12:57.535Z,633.75
2022-12-11T19:16:23.086Z,466.43
2022-12-11T19:19:31.442Z,410.97
2022-12-11T19:22:37.700Z,403.49
2022-12-11T19:25:46.908Z,409.52
2022-12-11T19:28:57.051Z,406.95
2022-12-11T19:32:05.809Z,454.13
2022-12-11T19:35:12.104Z,420.03
2022-12-11T19:38:18.726Z,468.69
2022-12-11T19:41:28.063Z,500.56
2022-12-11T19:44:37.021Z,505.93
2022-12-11T19:47:42.568Z,506.31
2022-12-11T19:50:50.183Z,507.57
2022-12-11T19:53:56.000Z,471.20
2022-12-11T19:57:02.441Z,456.86
2022-12-11T20:00:14.615Z,516.84
2022-12-11T20:03:22.208Z,560.58
2022-12-11T20:06:29.623Z,525.15
2022-12-11T20:09:40.562Z,470.31
2022-12-11T20:12:46.606Z,476.97
2022-12-11T20:15:55.676Z,359.23
2022-12-11T20:19:01.331Z,432.41
2022-12-11T20:22:07.753Z,361.09
2022-12-11T20:25:13.706Z,361.76
2022-12-11T20:28:20.208Z,340.05
2022-12-11T20:31:29.852Z,345.64
2022-12-11T20:34:36.351Z,305.14
2022-12-11T20:37:42.915Z,296.01
2022-12-11T20:40:49.415Z,299.32
2022-12-11T20:43:56.240Z,248.66
2022-12-11T20:47:06.863Z,260.76
2022-12-11T20:50:13.053Z,292.63
2022-12-11T20:53:19.385Z,259.35
2022-12-11T20:56:25.873Z,212.11
2022-12-11T20:59:32.618Z,227.43
2022-12-11T21:02:41.021Z,240.23
2022-12-11T21:05:50.270Z,261.78
2022-12-11T21:08:58.973Z,267.51
2022-12-11T21:12:05.921Z,281.15
2022-12-11T21:15:14.274Z,280.31
2022-12-11T21:18:23.536Z,294.19
2022-12-11T21:21:29.241Z,266.64
2022-12-11T21:24:36.183Z,264.65
2022-12-11T21:27:42.033Z,266.94
2022-12-11T21:30:51.744Z,279.78
2022-12-11T21:34:00.257Z,247.24
2022-12-11T21:37:06.700Z,248.27
2022-12-11T21:40:14.488Z,246.32
2022-12-11T21:43:20.945Z,259.97
2022-12-11T21:46:28.907Z,258.91
2022-12-11T21:49:37.915Z,266.09
2022-12-11T21:52:43.729Z,235.63
2022-12-11T21:55:50.026Z,236.38
2022-12-11T21:59:01.538Z,235.69
2022-12-11T22:02:08.070Z,236.03
2022-12-11T22:05:16.341Z,239.77
2022-12-11T22:08:22.800Z,235.90
2022-12-11T22:11:34.338Z,212.91
2022-12-11T22:14:40.692Z,210.68
2022-12-11T22:17:47.599Z,206.11
2022-12-11T22:20:57.726Z,196.74
2022-12-11T22:24:03.403Z,197.99
2022-12-11T22:27:10.320Z,201.46
2022-12-11T22:30:17.175Z,197.71
2022-12-11T22:33:23.587Z,200.25
2022-12-11T22:36:31.828Z,207.86
2022-12-11T22:39:38.389Z,217.15
2022-12-11T22:42:44.262Z,229.11
2022-12-11T22:45:50.722Z,260.07
2022-12-11T22:48:57.307Z,265.84
2022-12-11T22:52:06.591Z,273.65
2022-12-11T22:55:12.743Z,280.04
2022-12-11T22:58:21.921Z,288.10
2022-12-11T23:01:30.401Z,282.65
2022-12-11T23:04:36.835Z,295.92
2022-12-11T23:07:45.090Z,286.53
2022-12-11T23:10:51.546Z,284.24
2022-12-11T23:13:58.642Z,275.05
2022-12-11T23:17:05.583Z,269.88
2022-12-11T23:20:13.259Z,267.69
2022-12-11T23:23:22.055Z,261.94
2022-12-11T23:26:29.319Z,266.96
2022-12-11T23:29:36.024Z,280.15
2022-12-11T23:32:41.585Z,289.54
2022-12-11T23:35:48.183Z,283.74
2022-12-11T23:38:57.834Z,258.47
2022-12-11T23:42:04.257Z,274.82
2022-12-11T23:45:11.899Z,275.03
2022-12-11T23:48:18.736Z,283.44
2022-12-11T23:51:26.639Z,286.06
2022-12-11T23:54:36.317Z,290.05
2022-12-11T23:57:44.363Z,270.67
